CheckWX is a tool to help pilots better visualize weather data.  It is not intended as a substitute for an official pre-flight weather briefing.

03:55:58 UTC

EDHI METAR
Hamburg-Finkenwerder Airport
Hamburg, Germany
Current

36 mins ago

EDHI 050320Z AUTO 22008KT 4300 // OVC004/// 18/17 Q1006
Observed
Jul-5 @ 03:20 UTC
Wind
  • 220° at 8 KTS
Visibility
4297 meters
Flight Rules
LIFR
Cloud Levels
  • Overcast at 400' AGL
Temperature
18°C / 64°F
Dewpoint
17°C / 63°F
Humidity
94%
Altimeter
29.7" Hg
Pressure
1005.92 hPa
Previous

1 hour ago

EDHI 050250Z AUTO 22008KT 4300 // OVC004/// 18/17 Q1006
Observed
Jul-5 @ 02:50 UTC
Wind
  • 220° at 8 KTS
Visibility
4297 meters
Flight Rules
LIFR
Cloud Levels
  • Overcast at 400' AGL
Temperature
18°C / 64°F
Dewpoint
17°C / 63°F
Humidity
94%
Altimeter
29.7" Hg
Pressure
1005.92 hPa
Previous

2 hours ago

EDHI 050220Z AUTO 22008KT 8000 // OVC005/// 18/17 Q1007
Observed
Jul-5 @ 02:20 UTC
Wind
  • 220° at 8 KTS
Visibility
7998 meters
Flight Rules
IFR
Cloud Levels
  • Overcast at 500' AGL
Temperature
18°C / 64°F
Dewpoint
17°C / 63°F
Humidity
94%
Altimeter
29.73" Hg
Pressure
1006.92 hPa